Latest Coastal Weather Observations for Coles Point

IDS60701

Issued at 6:31 am CST Monday 30 May 2016 (issued every 10 minutes, with the page automatically refreshed every 10 minutes)

About coastal observations | Map of coastal stations | Coastal observations for SA | Marine services | Other Formats
Station Details ID: 018191 Name: COLES POINT Lat: -34.37 Lon: 135.37 Height: 28.0 m
Data from the previous 72 hours. | See also: Recent months at Coles Point
Date/Time
CST
Temp

°C
Wind Pressure Rain
since 9am
mm
Weather Cloud Vis
km
Sea
Height
m
Swell
Dir
 
Speed
knots
Gust
knots
hPa Trend Height
m
Period
s
Dir
30/06:30am 10.1 ENE 7 8 1015.1 - 1.8 - - - - - - -
30/06:00am 10.7 E 5 7 1014.8 - 1.8 - - - - - - -
30/05:30am 10.6 NE 8 9 1014.4 - 1.8 - - - - - - -
30/05:00am 11.5 NNE 7 9 1014.2 - 1.8 - - - - - - -
30/04:30am 11.3 NNE 8 10 1014.0 - 1.8 - - - - - - -
30/04:00am 10.5 NE 7 8 1013.8 - 1.8 - - - - - - -
30/03:30am 10.9 NE 7 9 1013.9 - 1.8 - - - - - - -
30/03:00am 11.6 NE 7 9 1013.8 - 1.8 Recent precip. - - - - - -
30/02:30am 11.8 NE 10 11 1013.6 - 1.8 - - - - - - -
30/02:00am 12.0 NE 11 12 1013.8 - 1.6 - - - - - - -
30/01:30am 12.1 NE 9 11 1013.9 - 1.4 - - - - - - -
30/01:00am 12.4 NE 10 11 1014.0 - 1.4 - - - - - - -
30/12:30am 12.4 NNE 11 13 1014.3 - 1.4 - - - - - - -
30/12:00am 12.2 NE 11 13 1014.2 - 1.4 - - - - - - -
 
Date/Time
CST
Temp

°C
Wind Pressure Rain
since 9am
mm
Weather Cloud Vis
km
Sea
Height
m
Swell
Dir
 
Speed
knots
Gust
knots
hPa Trend Height
m
Period
s
Dir
29/11:30pm 12.3 NE 9 10 1014.3 - 1.4 - - - - - - -
29/11:00pm 12.4 NE 10 11 1014.5 - 1.4 - - - - - - -
29/10:30pm 12.1 NE 9 9 1014.6 - 1.4 - - - - - - -
29/10:00pm 12.5 NNE 7 8 1015.1 - 1.4 - - - - - - -
29/09:30pm 12.4 NE 6 7 1015.3 - 1.4 - - - - - - -
29/09:00pm 12.7 ENE 7 7 1015.2 - 1.4 Recent precip. - - - - - -
29/08:30pm 13.3 NNE 5 6 1015.4 - 1.2 - - - - - - -
29/08:00pm 13.4 NNE 7 8 1015.7 - 0.8 - - - - - - -
29/07:30pm 12.8 NNE 6 6 1014.8 - 0.8 - - - - - - -
29/07:00pm 13.4 NNE 6 7 1014.7 - 0.8 - - - - - - -
29/06:30pm 14.5 N 6 8 1014.6 - 0.8 - - - - - - -
29/06:00pm 14.5 NNE 7 8 1014.3 - 0.8 Recent precip. - - - - - -
29/05:30pm 15.1 N 8 9 1014.3 - 0.8 - - - - - - -
29/05:00pm 15.4 N 7 11 1014.2 - 0.4 - - - - - - -
29/04:30pm 16.6 NNW 5 7 1014.3 - 0.0 - - - - - - -
29/04:00pm 17.1 NNW 8 9 1014.2 - 0.0 - - - - - - -
29/03:30pm 18.5 NNW 10 13 1014.0 - 0.0 - - - - - - -
29/03:00pm 19.0 NNW 12 18 1014.1 - 0.0 - - - - - - -
29/02:30pm 19.1 NNW 12 16 1013.9 - 0.0 - - - - - - -
29/02:00pm 18.8 NNW 14 18 1014.2 - 0.0 - - - - - - -
29/01:30pm 18.6 NNW 14 17 1014.5 - 0.0 - - - - - - -
29/01:00pm 18.1 NNW 13 17 1014.9 - 0.0 - - - - - - -
29/12:30pm 18.1 NNW 12 17 1015.2 - 0.0 - - - - - - -
29/12:00pm 17.7 N 12 16 1015.7 - 0.0 - - - - - - -
29/11:30am 16.6 N 12 15 1016.1 - 0.0 - - - - - - -
29/11:00am 15.8 N 12 17 1016.4 - 0.0 - - - - - - -
29/10:30am 14.0 NE 10 12 1016.7 - 0.0 - - - - - - -
29/10:00am 12.2 NE 11 12 1016.7 - 0.0 - - - - - - -
29/09:30am 11.5 NE 11 13 1016.8 - 0.0 - - - - - - -
29/09:00am 10.1 NE 11 12 1016.8 - 0.0 - - - - - - -
29/08:30am 10.0 NE 11 12 1016.7 - 0.0 - - - - - - -
29/08:00am 9.6 NE 12 13 1016.4 - 0.0 - - - - - - -
29/07:30am 9.5 NE 12 13 1016.4 - 0.0 - - - - - - -
29/07:00am 9.6 NE 12 12 1016.4 - 0.0 - - - - - - -
29/06:30am 10.0 NE 11 11 1016.3 - 0.0 - - - - - - -
29/06:00am 10.0 NE 10 11 1016.2 - 0.0 - - - - - - -
29/05:30am 10.2 NE 10 11 1016.1 - 0.0 - - - - - - -
29/05:00am 10.2 NE 9 10 1016.2 - 0.0 - - - - - - -
29/04:30am 10.5 NE 9 9 1016.2 - 0.0 - - - - - - -
29/04:00am 10.8 NE 9 10 1016.4 - 0.0 - - - - - - -
29/03:30am 11.3 NE 9 10 1016.4 - 0.0 - - - - - - -
29/03:00am 11.2 NNE 6 8 1016.6 - 0.0 - - - - - - -
29/02:30am 11.1 NNE 6 8 1016.8 - 0.0 - - - - - - -
29/02:00am 11.0 NNE 6 7 1017.0 - 0.0 - - - - - - -
29/01:30am 10.7 NE 7 8 1017.0 - 0.0 - - - - - - -
29/01:00am 10.4 NNE 7 10 1017.1 - 0.0 - - - - - - -
29/12:30am 9.8 NE 7 8 1017.2 - 0.0 - - - - - - -
29/12:00am 10.4 NE 8 9 1017.6 - 0.0 - - - - - - -
 
Date/Time
CST
Temp

°C
Wind Pressure Rain
since 9am
mm
Weather Cloud Vis
km
Sea
Height
m
Swell
Dir
 
Speed
knots
Gust
knots
hPa Trend Height
m
Period
s
Dir
28/11:30pm 10.2 ENE 8 9 1017.9 - 0.0 - - - - - - -
28/11:00pm 10.4 NE 8 9 1018.0 - 0.0 - - - - - - -
28/10:30pm 10.3 NNE 8 8 1018.0 - 0.0 - - - - - - -
28/10:00pm 11.1 NNE 8 9 1018.2 - 0.0 - - - - - - -
28/09:30pm 10.6 NNE 7 7 1018.2 - 0.0 - - - - - - -
28/09:00pm 11.0 NE 7 7 1018.0 - 0.0 - - - - - - -
28/08:30pm 11.4 NE 6 7 1018.3 - 0.0 - - - - - - -
28/08:00pm 11.9 NE 6 7 1018.3 - 0.0 - - - - - - -
28/07:30pm 11.3 NNE 5 6 1017.9 - 0.0 - - - - - - -
28/07:00pm 11.9 NE 5 6 1017.8 - 0.0 - - - - - - -
28/06:30pm 12.6 ENE 5 6 1017.7 - 0.0 - - - - - - -
28/06:00pm 12.7 ENE 2 4 1017.6 - 0.0 - - - - - - -
28/05:30pm 14.4 WSW 1 1 1017.6 - 0.0 - - - - - - -
28/05:00pm 15.6 WSW 2 3 1017.4 - 0.0 - - - - - - -
28/04:30pm 15.6 WSW 2 3 1017.3 - 0.0 - - - - - - -
28/04:00pm 16.0 WSW 3 4 1017.2 - 0.0 - - - - - - -
28/03:30pm 16.3 WSW 4 5 1017.3 - 0.0 - - - - - - -
28/03:00pm 16.3 WSW 5 6 1017.2 - 0.0 - - - - - - -
28/02:30pm 16.4 WSW 5 7 1017.3 - 0.0 - - - - - - -
28/02:00pm 16.5 WSW 5 7 1017.3 - 0.0 - - - - - - -
28/01:30pm 16.6 WSW 5 6 1017.3 - 0.0 - - - - - - -
28/01:00pm 15.8 E 1 3 1017.6 - 0.0 - - - - - - -
28/12:30pm 15.7 SW 4 7 1017.8 - 0.0 - - - - - - -
28/12:00pm 16.2 ESE 3 7 1018.0 - 0.0 - - - - - - -
28/11:30am 15.8 SE 5 8 1018.3 - 0.0 - - - - - - -
28/11:00am 15.5 SE 7 9 1018.5 - 0.0 - - - - - - -
28/10:30am 15.6 SE 9 11 1018.5 - 0.0 - - - - - - -
28/10:00am 15.1 SSE 6 8 1018.6 - 0.0 - - - - - - -
28/09:30am 14.4 SE 4 7 1018.5 - 0.0 - - - - - - -
28/09:00am 13.2 CALM 0 0 1018.3 - 6.8 - - - - - - -
28/08:30am 11.8 CALM 0 0 1018.0 - 6.8 - - - - - - -
28/08:00am 10.0 NE 4 5 1017.6 - 6.8 - - - - - - -
28/07:30am 9.1 ESE 3 4 1017.3 - 6.8 - - - - - - -
28/07:00am 9.3 ESE 3 3 1016.6 - 6.8 - - - - - - -
28/06:30am 10.7 SE 5 5 1016.3 - 6.8 - - - - - - -
28/06:00am 12.4 S 7 11 1016.3 - 6.8 - - - - - - -
28/05:30am 12.2 S 7 9 1016.3 - 6.8 - - - - - - -
28/05:00am 12.2 S 6 8 1016.1 - 6.8 - - - - - - -
28/04:30am 12.4 S 8 10 1015.6 - 6.8 - - - - - - -
28/04:00am 12.6 S 7 10 1015.2 - 6.8 - - - - - - -
28/03:30am 12.8 S 9 11 1014.9 - 6.8 - - - - - - -
28/03:00am 13.0 S 15 23 1014.8 - 6.8 Rain - - - - - -
28/02:30am 13.6 SSW 11 16 1014.5 - 6.6 - - - - - - -
28/02:00am 13.9 SSW 14 20 1014.3 - 6.6 - - - - - - -
28/01:30am 14.0 SW 16 22 1014.3 - 6.6 - - - - - - -
28/01:00am 13.7 SW 20 25 1014.1 - 6.6 - - - - - - -
28/12:30am 12.7 SW 22 29 1014.5 - 6.6 - - - - - - -
28/12:00am 13.5 SW 21 27 1014.3 - 6.2 Recent precip. - - - - - -
 
Date/Time
CST
Temp

°C
Wind Pressure Rain
since 9am
mm
Weather Cloud Vis
km
Sea
Height
m
Swell
Dir
 
Speed
knots
Gust
knots
hPa Trend Height
m
Period
s
Dir
27/11:30pm 13.0 SW 21 27 1014.3 - 6.2 - - - - - - -
27/11:00pm 14.0 WSW 21 28 1014.2 - 5.8 - - - - - - -
27/10:34pm 14.0 SW 21 31 1014.3 - 5.8 - - - - - - -
27/10:30pm 14.4 WSW 20 28 1014.1 - 5.8 - - - - - - -
27/10:13pm 14.1 WSW 20 30 1014.3 - 5.8 - - - - - - -
27/10:00pm 14.2 WSW 23 30 1014.3 - 5.8 - - - - - - -
27/09:30pm 13.9 WSW 21 27 1014.2 - 5.8 - - - - - - -
27/09:00pm 13.3 SW 20 30 1014.2 - 5.8 Recent precip. - - - - - -
27/08:49pm 14.0 SW 21 35 1014.2 - 5.8 - - - - - - -
27/08:30pm 13.6 SW 21 27 1013.9 - 5.8 - - - - - - -
27/08:00pm 12.9 SW 18 24 1013.9 - 5.6 - - - - - - -
27/07:30pm 13.1 SW 20 27 1013.6 - 5.4 - - - - - - -
27/07:00pm 12.8 SW 17 27 1013.4 - 5.2 - - - - - - -
27/06:57pm 12.7 SW 17 27 1013.2 - 5.0 - - - - - - -
27/06:30pm 13.4 SW 21 29 1013.0 - 4.0 - - - - - - -
27/06:21pm 13.9 SW 17 29 1013.0 - 4.0 - - - - - - -
27/06:00pm 13.8 SW 17 25 1012.7 - 4.0 Recent precip. - - - - - -
27/05:30pm 13.1 SW 15 20 1012.4 - 4.0 - - - - - - -
27/05:16pm 12.5 SW 21 32 1012.4 - 4.0 - - - - - - -
27/05:12pm 11.6 SW 20 32 1012.4 - 4.0 - - - - - - -
27/05:09pm 13.5 SSW 18 32 1012.3 - 3.2 - - - - - - -
27/05:00pm 14.4 SW 18 25 1012.0 - 3.0 - - - - - - -
27/04:30pm 14.1 SW 18 24 1011.8 - 3.0 - - - - - - -
27/04:00pm 14.2 SW 20 31 1011.5 - 3.0 - - - - - - -
27/03:30pm 14.6 SW 21 28 1011.0 - 3.0 - - - - - - -
27/03:00pm 14.3 SW 22 28 1010.6 - 3.0 - - - - - - -
27/02:35pm 15.1 SW 23 33 1010.2 - 3.0 - - - - - - -
27/02:30pm 15.2 SW 22 29 1010.2 - 3.0 - - - - - - -
27/02:00pm 12.9 SW 24 34 1010.1 - 3.0 - - - - - - -
27/01:30pm 14.8 WSW 24 34 1010.2 - 3.0 - - - - - - -
27/01:23pm 14.3 WSW 23 34 1010.3 - 3.0 - - - - - - -
27/01:00pm 14.8 WSW 25 32 1010.2 - 2.8 - - - - - - -
27/12:30pm 15.2 WSW 23 34 1010.2 - 2.8 - - - - - - -
27/12:00pm 13.6 WSW 26 37 1010.5 - 2.8 - - - - - - -
27/11:31am 14.6 WSW 24 34 1010.4 - 2.8 - - - - - - -
27/11:30am 14.7 WSW 25 34 1010.5 - 2.8 - - - - - - -
27/11:11am 15.0 WSW 21 31 1010.4 - 2.8 - - - - - - -
27/11:00am 14.3 WSW 22 29 1010.6 - 2.8 - - - - - - -
27/10:30am 12.9 WSW 22 33 1010.7 - 2.8 - - - - - - -
27/10:03am 13.4 WSW 19 33 1010.8 - 2.0 - - - - - - -
27/10:00am 13.4 WSW 18 25 1010.5 - 2.0 - - - - - - -
27/09:33am 12.9 WSW 15 27 1010.5 - 1.0 - - - - - - -
27/09:30am 13.3 W 13 19 1010.1 - 0.6 - - - - - - -
27/09:00am 12.5 W 18 25 1010.7 - 12.0 Rain - - - - - -
27/08:30am 12.1 WSW 23 32 1010.6 - 10.0 - - - - - - -
27/08:17am 12.6 WSW 19 34 1010.6 - 8.6 - - - - - - -
27/08:13am 13.9 WSW 14 34 1010.4 - 8.2 - - - - - - -
27/08:00am 14.0 W 17 24 1009.8 - 8.2 - - - - - - -
27/07:30am 15.0 W 14 21 1009.9 - 8.2 - - - - - - -
27/07:00am 14.8 W 16 21 1010.2 - 8.2 - - - - - - -

Other Formats:

Comma delimited format used in spreadsheet applications
http://www.bom.gov.au/fwo/IDS60701/IDS60701.94658.axf

JavaScript Object Notation format (JSON) in row-major order
http://www.bom.gov.au/fwo/IDS60701/IDS60701.94658.json